sensor_id;sensor_type;location;lat;lon;timestamp;P1;durP1;ratioP1;P2;durP2;ratioP2
21430;SDS011;10876;49.038;10.608;2022-11-15T00:01:07;9.80;;;4.45;;
21430;SDS011;10876;49.038;10.608;2022-11-15T00:03:34;7.28;;;4.38;;
21430;SDS011;10876;49.038;10.608;2022-11-15T00:06:01;8.07;;;4.53;;
21430;SDS011;10876;49.038;10.608;2022-11-15T00:08:28;9.88;;;5.05;;
21430;SDS011;10876;49.038;10.608;2022-11-15T00:10:55;10.52;;;5.35;;
21430;SDS011;10876;49.038;10.608;2022-11-15T00:13:22;7.82;;;5.03;;
21430;SDS011;10876;49.038;10.608;2022-11-15T00:15:49;9.63;;;4.82;;
21430;SDS011;10876;49.038;10.608;2022-11-15T00:18:17;11.80;;;5.40;;
21430;SDS011;10876;49.038;10.608;2022-11-15T00:20:44;8.23;;;5.03;;
21430;SDS011;10876;49.038;10.608;2022-11-15T00:23:11;9.90;;;5.35;;
21430;SDS011;10876;49.038;10.608;2022-11-15T00:25:37;7.47;;;4.88;;
21430;SDS011;10876;49.038;10.608;2022-11-15T00:28:04;8.75;;;5.20;;
21430;SDS011;10876;49.038;10.608;2022-11-15T00:30:31;8.00;;;4.82;;
21430;SDS011;10876;49.038;10.608;2022-11-15T00:33:00;11.32;;;5.07;;
21430;SDS011;10876;49.038;10.608;2022-11-15T00:35:30;7.95;;;5.03;;
21430;SDS011;10876;49.038;10.608;2022-11-15T00:37:57;9.27;;;4.95;;
21430;SDS011;10876;49.038;10.608;2022-11-15T00:40:23;7.47;;;4.55;;
21430;SDS011;10876;49.038;10.608;2022-11-15T00:42:50;8.30;;;5.13;;
21430;SDS011;10876;49.038;10.608;2022-11-15T00:45:16;6.63;;;4.35;;
21430;SDS011;10876;49.038;10.608;2022-11-15T00:47:43;8.75;;;5.00;;
21430;SDS011;10876;49.038;10.608;2022-11-15T00:50:10;8.68;;;5.15;;
21430;SDS011;10876;49.038;10.608;2022-11-15T00:52:38;7.00;;;4.55;;
21430;SDS011;10876;49.038;10.608;2022-11-15T00:55:04;7.57;;;4.47;;
21430;SDS011;10876;49.038;10.608;2022-11-15T00:57:31;9.68;;;4.93;;
21430;SDS011;10876;49.038;10.608;2022-11-15T00:59:57;6.68;;;4.60;;
21430;SDS011;10876;49.038;10.608;2022-11-15T01:02:23;8.05;;;5.13;;
21430;SDS011;10876;49.038;10.608;2022-11-15T01:04:50;8.95;;;4.90;;
21430;SDS011;10876;49.038;10.608;2022-11-15T01:07:16;7.95;;;4.78;;
21430;SDS011;10876;49.038;10.608;2022-11-15T01:09:44;10.23;;;5.28;;
21430;SDS011;10876;49.038;10.608;2022-11-15T01:12:11;6.20;;;4.72;;
21430;SDS011;10876;49.038;10.608;2022-11-15T01:14:37;6.32;;;4.68;;
21430;SDS011;10876;49.038;10.608;2022-11-15T01:17:04;7.10;;;4.60;;
21430;SDS011;10876;49.038;10.608;2022-11-15T01:19:30;7.20;;;4.50;;
21430;SDS011;10876;49.038;10.608;2022-11-15T01:21:56;5.78;;;4.50;;
21430;SDS011;10876;49.038;10.608;2022-11-15T01:24:23;6.35;;;4.47;;
21430;SDS011;10876;49.038;10.608;2022-11-15T01:26:51;8.05;;;4.95;;
21430;SDS011;10876;49.038;10.608;2022-11-15T01:29:17;6.68;;;4.45;;
21430;SDS011;10876;49.038;10.608;2022-11-15T01:31:44;7.95;;;4.38;;
21430;SDS011;10876;49.038;10.608;2022-11-15T01:34:10;7.68;;;4.55;;
21430;SDS011;10876;49.038;10.608;2022-11-15T01:36:36;7.00;;;4.20;;
21430;SDS011;10876;49.038;10.608;2022-11-15T01:39:03;7.35;;;4.40;;
21430;SDS011;10876;49.038;10.608;2022-11-15T01:41:30;6.45;;;4.15;;
21430;SDS011;10876;49.038;10.608;2022-11-15T01:46:46;7.18;;;4.35;;
21430;SDS011;10876;49.038;10.608;2022-11-15T01:49:14;6.07;;;3.83;;
21430;SDS011;10876;49.038;10.608;2022-11-15T01:51:42;8.45;;;4.63;;
21430;SDS011;10876;49.038;10.608;2022-11-15T01:54:10;8.55;;;4.95;;
21430;SDS011;10876;49.038;10.608;2022-11-15T01:56:40;8.15;;;5.00;;
21430;SDS011;10876;49.038;10.608;2022-11-15T01:59:08;9.05;;;4.53;;
21430;SDS011;10876;49.038;10.608;2022-11-15T02:01:36;8.15;;;5.00;;
21430;SDS011;10876;49.038;10.608;2022-11-15T02:04:05;9.05;;;5.28;;
21430;SDS011;10876;49.038;10.608;2022-11-15T02:06:34;6.38;;;4.82;;
21430;SDS011;10876;49.038;10.608;2022-11-15T02:09:00;8.35;;;5.30;;
21430;SDS011;10876;49.038;10.608;2022-11-15T02:11:27;8.98;;;5.25;;
21430;SDS011;10876;49.038;10.608;2022-11-15T02:13:54;11.98;;;4.90;;
21430;SDS011;10876;49.038;10.608;2022-11-15T02:16:25;7.78;;;4.88;;
21430;SDS011;10876;49.038;10.608;2022-11-15T02:18:57;7.72;;;4.63;;
21430;SDS011;10876;49.038;10.608;2022-11-15T02:21:28;7.15;;;4.63;;
21430;SDS011;10876;49.038;10.608;2022-11-15T02:26:53;8.48;;;4.55;;
21430;SDS011;10876;49.038;10.608;2022-11-15T02:29:28;8.02;;;4.63;;
21430;SDS011;10876;49.038;10.608;2022-11-15T02:32:02;6.20;;;4.32;;
21430;SDS011;10876;49.038;10.608;2022-11-15T02:34:32;8.15;;;4.88;;
21430;SDS011;10876;49.038;10.608;2022-11-15T02:37:02;7.82;;;4.80;;
21430;SDS011;10876;49.038;10.608;2022-11-15T02:39:33;7.38;;;5.07;;
21430;SDS011;10876;49.038;10.608;2022-11-15T02:42:02;6.57;;;4.53;;
21430;SDS011;10876;49.038;10.608;2022-11-15T02:44:30;6.65;;;4.07;;
21430;SDS011;10876;49.038;10.608;2022-11-15T02:46:59;6.15;;;4.32;;
21430;SDS011;10876;49.038;10.608;2022-11-15T02:49:43;11.75;;;4.30;;
21430;SDS011;10876;49.038;10.608;2022-11-15T02:52:14;8.02;;;4.57;;
21430;SDS011;10876;49.038;10.608;2022-11-15T02:54:40;5.40;;;4.25;;
21430;SDS011;10876;49.038;10.608;2022-11-15T02:57:10;7.15;;;4.10;;
21430;SDS011;10876;49.038;10.608;2022-11-15T02:59:43;5.72;;;3.75;;
21430;SDS011;10876;49.038;10.608;2022-11-15T03:02:18;6.57;;;4.05;;
21430;SDS011;10876;49.038;10.608;2022-11-15T03:04:52;7.38;;;4.65;;
21430;SDS011;10876;49.038;10.608;2022-11-15T03:07:20;9.35;;;4.60;;
21430;SDS011;10876;49.038;10.608;2022-11-15T03:09:51;7.03;;;4.55;;
21430;SDS011;10876;49.038;10.608;2022-11-15T03:12:20;7.07;;;4.70;;
21430;SDS011;10876;49.038;10.608;2022-11-15T03:14:50;6.40;;;4.53;;
21430;SDS011;10876;49.038;10.608;2022-11-15T03:17:18;10.50;;;4.80;;
21430;SDS011;10876;49.038;10.608;2022-11-15T03:19:46;7.30;;;3.85;;
21430;SDS011;10876;49.038;10.608;2022-11-15T03:22:15;8.23;;;4.70;;
21430;SDS011;10876;49.038;10.608;2022-11-15T03:24:43;8.48;;;4.68;;
21430;SDS011;10876;49.038;10.608;2022-11-15T03:27:10;7.03;;;4.63;;
21430;SDS011;10876;49.038;10.608;2022-11-15T03:29:39;6.60;;;3.95;;
21430;SDS011;10876;49.038;10.608;2022-11-15T03:32:09;11.85;;;4.90;;
21430;SDS011;10876;49.038;10.608;2022-11-15T03:34:38;10.00;;;4.43;;
21430;SDS011;10876;49.038;10.608;2022-11-15T03:37:06;7.93;;;4.90;;
21430;SDS011;10876;49.038;10.608;2022-11-15T03:39:34;10.10;;;4.47;;
21430;SDS011;10876;49.038;10.608;2022-11-15T03:42:04;8.13;;;4.10;;
21430;SDS011;10876;49.038;10.608;2022-11-15T03:44:35;6.30;;;4.20;;
21430;SDS011;10876;49.038;10.608;2022-11-15T03:47:06;6.90;;;4.30;;
21430;SDS011;10876;49.038;10.608;2022-11-15T03:49:33;7.22;;;4.03;;
21430;SDS011;10876;49.038;10.608;2022-11-15T03:52:01;8.82;;;4.38;;
21430;SDS011;10876;49.038;10.608;2022-11-15T03:54:28;7.65;;;4.45;;
21430;SDS011;10876;49.038;10.608;2022-11-15T03:56:56;7.35;;;4.38;;
21430;SDS011;10876;49.038;10.608;2022-11-15T03:59:23;8.05;;;4.13;;
21430;SDS011;10876;49.038;10.608;2022-11-15T04:01:49;9.15;;;4.80;;
21430;SDS011;10876;49.038;10.608;2022-11-15T04:04:17;7.30;;;4.47;;
21430;SDS011;10876;49.038;10.608;2022-11-15T04:06:44;6.95;;;4.18;;
21430;SDS011;10876;49.038;10.608;2022-11-15T04:09:10;7.10;;;4.30;;
21430;SDS011;10876;49.038;10.608;2022-11-15T04:11:37;10.38;;;5.20;;
21430;SDS011;10876;49.038;10.608;2022-11-15T04:14:04;7.80;;;4.30;;
21430;SDS011;10876;49.038;10.608;2022-11-15T04:16:31;6.35;;;4.15;;
21430;SDS011;10876;49.038;10.608;2022-11-15T04:18:57;8.88;;;4.32;;
21430;SDS011;10876;49.038;10.608;2022-11-15T04:21:41;6.93;;;4.28;;
21430;SDS011;10876;49.038;10.608;2022-11-15T04:24:25;6.97;;;4.28;;
21430;SDS011;10876;49.038;10.608;2022-11-15T04:26:51;6.32;;;4.47;;
21430;SDS011;10876;49.038;10.608;2022-11-15T04:29:19;5.88;;;4.10;;
21430;SDS011;10876;49.038;10.608;2022-11-15T04:32:01;6.85;;;4.28;;
21430;SDS011;10876;49.038;10.608;2022-11-15T04:34:28;6.53;;;4.10;;
21430;SDS011;10876;49.038;10.608;2022-11-15T04:36:54;7.28;;;4.38;;
21430;SDS011;10876;49.038;10.608;2022-11-15T04:39:41;6.65;;;4.40;;
21430;SDS011;10876;49.038;10.608;2022-11-15T04:42:08;5.28;;;3.95;;
21430;SDS011;10876;49.038;10.608;2022-11-15T04:44:36;6.35;;;3.88;;
21430;SDS011;10876;49.038;10.608;2022-11-15T04:47:03;7.05;;;3.75;;
21430;SDS011;10876;49.038;10.608;2022-11-15T04:49:29;8.23;;;4.00;;
21430;SDS011;10876;49.038;10.608;2022-11-15T04:51:56;6.80;;;4.32;;
21430;SDS011;10876;49.038;10.608;2022-11-15T04:54:22;6.63;;;4.15;;
21430;SDS011;10876;49.038;10.608;2022-11-15T04:56:49;5.57;;;3.72;;
21430;SDS011;10876;49.038;10.608;2022-11-15T04:59:15;8.63;;;4.50;;
21430;SDS011;10876;49.038;10.608;2022-11-15T05:01:43;6.63;;;4.35;;
21430;SDS011;10876;49.038;10.608;2022-11-15T05:04:09;6.05;;;3.78;;
21430;SDS011;10876;49.038;10.608;2022-11-15T05:06:44;8.20;;;4.75;;
21430;SDS011;10876;49.038;10.608;2022-11-15T05:09:10;6.32;;;4.40;;
21430;SDS011;10876;49.038;10.608;2022-11-15T05:11:38;6.32;;;4.05;;
21430;SDS011;10876;49.038;10.608;2022-11-15T05:14:04;7.25;;;4.65;;
21430;SDS011;10876;49.038;10.608;2022-11-15T05:16:31;7.05;;;4.10;;
21430;SDS011;10876;49.038;10.608;2022-11-15T05:18:59;6.20;;;4.07;;
21430;SDS011;10876;49.038;10.608;2022-11-15T05:21:25;7.47;;;4.38;;
21430;SDS011;10876;49.038;10.608;2022-11-15T05:23:51;6.13;;;4.00;;
21430;SDS011;10876;49.038;10.608;2022-11-15T05:26:18;5.13;;;4.22;;
21430;SDS011;10876;49.038;10.608;2022-11-15T05:28:45;9.02;;;4.78;;
21430;SDS011;10876;49.038;10.608;2022-11-15T05:31:12;8.52;;;4.72;;
21430;SDS011;10876;49.038;10.608;2022-11-15T05:33:39;7.60;;;4.93;;
21430;SDS011;10876;49.038;10.608;2022-11-15T05:36:09;8.63;;;5.07;;
21430;SDS011;10876;49.038;10.608;2022-11-15T05:38:37;7.30;;;4.70;;
21430;SDS011;10876;49.038;10.608;2022-11-15T05:41:03;7.85;;;4.95;;
21430;SDS011;10876;49.038;10.608;2022-11-15T05:43:30;7.65;;;4.63;;
21430;SDS011;10876;49.038;10.608;2022-11-15T05:45:59;7.00;;;4.45;;
21430;SDS011;10876;49.038;10.608;2022-11-15T05:48:26;6.45;;;4.45;;
21430;SDS011;10876;49.038;10.608;2022-11-15T05:50:53;8.18;;;4.55;;
21430;SDS011;10876;49.038;10.608;2022-11-15T05:53:21;12.38;;;5.85;;
21430;SDS011;10876;49.038;10.608;2022-11-15T05:55:48;7.30;;;4.43;;
21430;SDS011;10876;49.038;10.608;2022-11-15T05:58:15;7.68;;;4.10;;
21430;SDS011;10876;49.038;10.608;2022-11-15T06:00:41;5.57;;;3.92;;
21430;SDS011;10876;49.038;10.608;2022-11-15T06:03:08;6.63;;;4.47;;
21430;SDS011;10876;49.038;10.608;2022-11-15T06:05:35;8.32;;;4.20;;
21430;SDS011;10876;49.038;10.608;2022-11-15T06:08:02;8.57;;;4.00;;
21430;SDS011;10876;49.038;10.608;2022-11-15T06:10:29;5.35;;;3.75;;
21430;SDS011;10876;49.038;10.608;2022-11-15T06:12:56;6.55;;;3.92;;
21430;SDS011;10876;49.038;10.608;2022-11-15T06:15:23;8.27;;;4.38;;
21430;SDS011;10876;49.038;10.608;2022-11-15T06:17:49;6.28;;;4.38;;
21430;SDS011;10876;49.038;10.608;2022-11-15T06:20:16;7.20;;;4.25;;
21430;SDS011;10876;49.038;10.608;2022-11-15T06:22:43;5.78;;;4.30;;
21430;SDS011;10876;49.038;10.608;2022-11-15T06:25:09;7.72;;;4.70;;
21430;SDS011;10876;49.038;10.608;2022-11-15T06:27:37;9.55;;;5.28;;
21430;SDS011;10876;49.038;10.608;2022-11-15T06:30:04;7.43;;;5.00;;
21430;SDS011;10876;49.038;10.608;2022-11-15T06:32:32;7.43;;;4.50;;
21430;SDS011;10876;49.038;10.608;2022-11-15T06:34:59;7.60;;;5.03;;
21430;SDS011;10876;49.038;10.608;2022-11-15T06:37:25;9.45;;;5.05;;
21430;SDS011;10876;49.038;10.608;2022-11-15T06:39:51;7.45;;;5.18;;
21430;SDS011;10876;49.038;10.608;2022-11-15T06:42:18;8.73;;;5.65;;
21430;SDS011;10876;49.038;10.608;2022-11-15T06:44:46;8.35;;;5.07;;
21430;SDS011;10876;49.038;10.608;2022-11-15T06:47:12;8.57;;;5.50;;
21430;SDS011;10876;49.038;10.608;2022-11-15T06:49:38;7.45;;;4.88;;
21430;SDS011;10876;49.038;10.608;2022-11-15T06:52:05;9.00;;;5.18;;
21430;SDS011;10876;49.038;10.608;2022-11-15T06:54:31;7.30;;;4.55;;
21430;SDS011;10876;49.038;10.608;2022-11-15T06:56:58;9.30;;;5.68;;
21430;SDS011;10876;49.038;10.608;2022-11-15T06:59:24;6.18;;;4.38;;
21430;SDS011;10876;49.038;10.608;2022-11-15T07:01:52;12.20;;;5.10;;
21430;SDS011;10876;49.038;10.608;2022-11-15T07:04:19;6.90;;;4.78;;
21430;SDS011;10876;49.038;10.608;2022-11-15T07:06:45;8.57;;;5.18;;
21430;SDS011;10876;49.038;10.608;2022-11-15T07:09:12;7.50;;;4.85;;
21430;SDS011;10876;49.038;10.608;2022-11-15T07:11:38;7.70;;;4.80;;
21430;SDS011;10876;49.038;10.608;2022-11-15T07:14:05;9.13;;;5.40;;
21430;SDS011;10876;49.038;10.608;2022-11-15T07:16:31;10.88;;;5.65;;
21430;SDS011;10876;49.038;10.608;2022-11-15T07:18:59;8.95;;;5.93;;
21430;SDS011;10876;49.038;10.608;2022-11-15T07:21:26;12.75;;;6.70;;
21430;SDS011;10876;49.038;10.608;2022-11-15T07:23:53;10.60;;;6.25;;
21430;SDS011;10876;49.038;10.608;2022-11-15T07:26:19;11.68;;;6.25;;
21430;SDS011;10876;49.038;10.608;2022-11-15T07:28:46;10.93;;;6.70;;
21430;SDS011;10876;49.038;10.608;2022-11-15T07:31:12;10.77;;;6.60;;
21430;SDS011;10876;49.038;10.608;2022-11-15T07:33:39;10.32;;;6.35;;
21430;SDS011;10876;49.038;10.608;2022-11-15T07:36:07;11.25;;;6.50;;
21430;SDS011;10876;49.038;10.608;2022-11-15T07:38:34;11.15;;;6.53;;
21430;SDS011;10876;49.038;10.608;2022-11-15T07:41:04;9.80;;;5.93;;
21430;SDS011;10876;49.038;10.608;2022-11-15T07:43:30;8.75;;;5.35;;
21430;SDS011;10876;49.038;10.608;2022-11-15T07:45:58;9.27;;;5.55;;
21430;SDS011;10876;49.038;10.608;2022-11-15T07:48:25;8.90;;;5.57;;
21430;SDS011;10876;49.038;10.608;2022-11-15T07:50:51;9.80;;;5.78;;
21430;SDS011;10876;49.038;10.608;2022-11-15T07:53:19;8.77;;;5.75;;
21430;SDS011;10876;49.038;10.608;2022-11-15T07:55:46;9.68;;;5.85;;
21430;SDS011;10876;49.038;10.608;2022-11-15T07:58:12;8.05;;;5.32;;
21430;SDS011;10876;49.038;10.608;2022-11-15T08:00:39;7.68;;;5.32;;
21430;SDS011;10876;49.038;10.608;2022-11-15T08:03:06;9.00;;;5.43;;
21430;SDS011;10876;49.038;10.608;2022-11-15T08:05:33;9.60;;;5.35;;
21430;SDS011;10876;49.038;10.608;2022-11-15T08:07:59;7.50;;;5.13;;
21430;SDS011;10876;49.038;10.608;2022-11-15T08:10:27;7.40;;;4.93;;
21430;SDS011;10876;49.038;10.608;2022-11-15T08:12:57;7.20;;;5.00;;
21430;SDS011;10876;49.038;10.608;2022-11-15T08:15:24;6.88;;;4.80;;
21430;SDS011;10876;49.038;10.608;2022-11-15T08:17:53;7.68;;;5.15;;
21430;SDS011;10876;49.038;10.608;2022-11-15T08:20:19;9.85;;;5.28;;
21430;SDS011;10876;49.038;10.608;2022-11-15T08:22:46;6.93;;;4.88;;
21430;SDS011;10876;49.038;10.608;2022-11-15T08:25:12;8.68;;;5.53;;
21430;SDS011;10876;49.038;10.608;2022-11-15T08:27:40;7.65;;;5.00;;
21430;SDS011;10876;49.038;10.608;2022-11-15T08:30:07;9.10;;;5.40;;
21430;SDS011;10876;49.038;10.608;2022-11-15T08:32:33;7.85;;;5.32;;
21430;SDS011;10876;49.038;10.608;2022-11-15T08:35:00;8.65;;;5.45;;
21430;SDS011;10876;49.038;10.608;2022-11-15T08:37:26;7.00;;;4.97;;
21430;SDS011;10876;49.038;10.608;2022-11-15T08:39:53;9.43;;;5.32;;
21430;SDS011;10876;49.038;10.608;2022-11-15T08:42:19;9.00;;;5.10;;
21430;SDS011;10876;49.038;10.608;2022-11-15T08:44:47;6.95;;;5.05;;
21430;SDS011;10876;49.038;10.608;2022-11-15T08:47:14;8.93;;;5.15;;
21430;SDS011;10876;49.038;10.608;2022-11-15T08:49:40;7.68;;;4.85;;
21430;SDS011;10876;49.038;10.608;2022-11-15T08:52:07;7.70;;;4.78;;
21430;SDS011;10876;49.038;10.608;2022-11-15T08:54:33;8.00;;;4.40;;
21430;SDS011;10876;49.038;10.608;2022-11-15T08:57:00;6.53;;;4.18;;
21430;SDS011;10876;49.038;10.608;2022-11-15T08:59:26;8.30;;;4.38;;
21430;SDS011;10876;49.038;10.608;2022-11-15T09:01:54;7.60;;;4.45;;
21430;SDS011;10876;49.038;10.608;2022-11-15T09:04:20;9.45;;;4.30;;
21430;SDS011;10876;49.038;10.608;2022-11-15T09:06:47;8.57;;;4.65;;
21430;SDS011;10876;49.038;10.608;2022-11-15T09:09:13;6.90;;;4.55;;
21430;SDS011;10876;49.038;10.608;2022-11-15T09:11:40;7.35;;;4.78;;
21430;SDS011;10876;49.038;10.608;2022-11-15T09:14:06;8.80;;;5.07;;
21430;SDS011;10876;49.038;10.608;2022-11-15T09:16:33;9.30;;;5.10;;
21430;SDS011;10876;49.038;10.608;2022-11-15T09:19:01;7.95;;;5.30;;
21430;SDS011;10876;49.038;10.608;2022-11-15T09:21:28;8.50;;;4.78;;
21430;SDS011;10876;49.038;10.608;2022-11-15T09:23:54;8.23;;;5.13;;
21430;SDS011;10876;49.038;10.608;2022-11-15T09:26:21;7.57;;;5.15;;
21430;SDS011;10876;49.038;10.608;2022-11-15T09:28:47;8.63;;;5.35;;
21430;SDS011;10876;49.038;10.608;2022-11-15T09:31:14;7.63;;;5.20;;
21430;SDS011;10876;49.038;10.608;2022-11-15T09:33:42;5.63;;;4.40;;
21430;SDS011;10876;49.038;10.608;2022-11-15T09:36:10;7.88;;;4.50;;
21430;SDS011;10876;49.038;10.608;2022-11-15T09:38:37;8.32;;;5.05;;
21430;SDS011;10876;49.038;10.608;2022-11-15T09:43:53;7.88;;;4.80;;
21430;SDS011;10876;49.038;10.608;2022-11-15T09:46:22;6.57;;;4.28;;
21430;SDS011;10876;49.038;10.608;2022-11-15T09:48:53;7.25;;;4.60;;
21430;SDS011;10876;49.038;10.608;2022-11-15T09:51:25;8.00;;;4.38;;
21430;SDS011;10876;49.038;10.608;2022-11-15T09:53:56;5.65;;;4.07;;
21430;SDS011;10876;49.038;10.608;2022-11-15T09:56:24;6.50;;;4.22;;
21430;SDS011;10876;49.038;10.608;2022-11-15T09:58:53;6.38;;;4.50;;
21430;SDS011;10876;49.038;10.608;2022-11-15T10:01:23;6.15;;;4.30;;
21430;SDS011;10876;49.038;10.608;2022-11-15T10:03:54;5.97;;;4.07;;
21430;SDS011;10876;49.038;10.608;2022-11-15T10:06:23;6.57;;;4.20;;
21430;SDS011;10876;49.038;10.608;2022-11-15T10:08:53;6.03;;;4.30;;
21430;SDS011;10876;49.038;10.608;2022-11-15T10:11:22;6.80;;;4.28;;
21430;SDS011;10876;49.038;10.608;2022-11-15T10:13:49;6.43;;;4.55;;
21430;SDS011;10876;49.038;10.608;2022-11-15T10:16:36;6.10;;;4.07;;
21430;SDS011;10876;49.038;10.608;2022-11-15T10:19:07;6.22;;;4.47;;
21430;SDS011;10876;49.038;10.608;2022-11-15T10:21:39;5.78;;;4.13;;
21430;SDS011;10876;49.038;10.608;2022-11-15T10:24:11;8.60;;;4.55;;
21430;SDS011;10876;49.038;10.608;2022-11-15T10:26:38;7.28;;;4.60;;
21430;SDS011;10876;49.038;10.608;2022-11-15T10:29:05;6.00;;;4.22;;
21430;SDS011;10876;49.038;10.608;2022-11-15T10:31:32;6.82;;;4.50;;
21430;SDS011;10876;49.038;10.608;2022-11-15T10:33:59;7.30;;;4.70;;
21430;SDS011;10876;49.038;10.608;2022-11-15T10:36:30;5.85;;;4.13;;
21430;SDS011;10876;49.038;10.608;2022-11-15T10:38:58;7.78;;;4.50;;
21430;SDS011;10876;49.038;10.608;2022-11-15T10:41:34;6.68;;;4.72;;
21430;SDS011;10876;49.038;10.608;2022-11-15T10:44:03;9.50;;;4.78;;
21430;SDS011;10876;49.038;10.608;2022-11-15T10:46:33;6.95;;;4.85;;
21430;SDS011;10876;49.038;10.608;2022-11-15T10:49:09;6.90;;;4.75;;
21430;SDS011;10876;49.038;10.608;2022-11-15T10:51:40;7.47;;;4.68;;
21430;SDS011;10876;49.038;10.608;2022-11-15T10:54:07;7.90;;;4.82;;
21430;SDS011;10876;49.038;10.608;2022-11-15T10:56:38;8.43;;;4.70;;
21430;SDS011;10876;49.038;10.608;2022-11-15T10:59:05;9.40;;;4.75;;
21430;SDS011;10876;49.038;10.608;2022-11-15T11:01:31;5.75;;;4.53;;
21430;SDS011;10876;49.038;10.608;2022-11-15T11:04:11;9.20;;;4.78;;
21430;SDS011;10876;49.038;10.608;2022-11-15T11:06:45;9.35;;;4.75;;
21430;SDS011;10876;49.038;10.608;2022-11-15T11:09:19;6.47;;;4.53;;
21430;SDS011;10876;49.038;10.608;2022-11-15T11:11:49;8.82;;;5.13;;
21430;SDS011;10876;49.038;10.608;2022-11-15T11:14:19;13.00;;;4.60;;
21430;SDS011;10876;49.038;10.608;2022-11-15T11:16:47;5.97;;;4.25;;
21430;SDS011;10876;49.038;10.608;2022-11-15T11:19:19;6.80;;;4.18;;
21430;SDS011;10876;49.038;10.608;2022-11-15T11:21:49;6.93;;;4.50;;
21430;SDS011;10876;49.038;10.608;2022-11-15T11:24:18;5.25;;;3.63;;
21430;SDS011;10876;49.038;10.608;2022-11-15T11:26:56;5.22;;;4.10;;
21430;SDS011;10876;49.038;10.608;2022-11-15T11:29:28;8.05;;;4.82;;
21430;SDS011;10876;49.038;10.608;2022-11-15T11:31:58;7.07;;;4.63;;
21430;SDS011;10876;49.038;10.608;2022-11-15T11:34:42;7.05;;;4.50;;
21430;SDS011;10876;49.038;10.608;2022-11-15T11:37:14;6.93;;;4.70;;
21430;SDS011;10876;49.038;10.608;2022-11-15T11:39:45;7.40;;;4.18;;
21430;SDS011;10876;49.038;10.608;2022-11-15T11:42:17;6.80;;;4.38;;
21430;SDS011;10876;49.038;10.608;2022-11-15T11:44:48;8.18;;;4.85;;
21430;SDS011;10876;49.038;10.608;2022-11-15T11:47:21;6.43;;;4.78;;
21430;SDS011;10876;49.038;10.608;2022-11-15T11:49:49;7.43;;;4.60;;
21430;SDS011;10876;49.038;10.608;2022-11-15T11:52:17;7.70;;;5.40;;
21430;SDS011;10876;49.038;10.608;2022-11-15T11:54:50;7.80;;;5.20;;
21430;SDS011;10876;49.038;10.608;2022-11-15T11:57:25;8.07;;;4.95;;
21430;SDS011;10876;49.038;10.608;2022-11-15T11:59:56;7.68;;;5.07;;
21430;SDS011;10876;49.038;10.608;2022-11-15T12:02:26;6.63;;;4.82;;
21430;SDS011;10876;49.038;10.608;2022-11-15T12:04:56;7.35;;;4.82;;
21430;SDS011;10876;49.038;10.608;2022-11-15T12:07:25;7.00;;;4.68;;
21430;SDS011;10876;49.038;10.608;2022-11-15T12:09:55;8.32;;;5.13;;
21430;SDS011;10876;49.038;10.608;2022-11-15T12:12:27;7.22;;;5.10;;
21430;SDS011;10876;49.038;10.608;2022-11-15T12:14:56;7.47;;;4.38;;
21430;SDS011;10876;49.038;10.608;2022-11-15T12:17:25;5.40;;;4.00;;
21430;SDS011;10876;49.038;10.608;2022-11-15T12:19:52;7.13;;;4.50;;
21430;SDS011;10876;49.038;10.608;2022-11-15T12:22:22;6.72;;;4.63;;
21430;SDS011;10876;49.038;10.608;2022-11-15T12:24:51;6.55;;;4.45;;
21430;SDS011;10876;49.038;10.608;2022-11-15T12:27:20;6.68;;;4.65;;
21430;SDS011;10876;49.038;10.608;2022-11-15T12:29:52;6.35;;;5.20;;
21430;SDS011;10876;49.038;10.608;2022-11-15T12:32:23;8.82;;;5.38;;
21430;SDS011;10876;49.038;10.608;2022-11-15T12:34:50;8.57;;;5.10;;
21430;SDS011;10876;49.038;10.608;2022-11-15T12:40:28;7.32;;;5.25;;
21430;SDS011;10876;49.038;10.608;2022-11-15T12:45:41;9.18;;;5.50;;
21430;SDS011;10876;49.038;10.608;2022-11-15T12:50:53;7.72;;;5.22;;
21430;SDS011;10876;49.038;10.608;2022-11-15T12:53:27;7.40;;;4.30;;
21430;SDS011;10876;49.038;10.608;2022-11-15T12:56:15;5.55;;;3.95;;
21430;SDS011;10876;49.038;10.608;2022-11-15T12:58:44;5.38;;;3.95;;
21430;SDS011;10876;49.038;10.608;2022-11-15T13:01:51;6.50;;;4.13;;
21430;SDS011;10876;49.038;10.608;2022-11-15T13:04:13;4.55;;;3.50;;
21430;SDS011;10876;49.038;10.608;2022-11-15T13:06:42;5.40;;;3.75;;
21430;SDS011;10876;49.038;10.608;2022-11-15T13:11:54;5.57;;;3.15;;
21430;SDS011;10876;49.038;10.608;2022-11-15T13:19:51;7.88;;;3.80;;
21430;SDS011;10876;49.038;10.608;2022-11-15T13:22:18;7.03;;;3.45;;
21430;SDS011;10876;49.038;10.608;2022-11-15T13:25:02;5.80;;;3.50;;
21430;SDS011;10876;49.038;10.608;2022-11-15T13:27:29;6.78;;;3.67;;
21430;SDS011;10876;49.038;10.608;2022-11-15T13:29:56;5.57;;;3.80;;
21430;SDS011;10876;49.038;10.608;2022-11-15T13:32:22;7.55;;;4.25;;
21430;SDS011;10876;49.038;10.608;2022-11-15T13:34:50;9.15;;;4.05;;
21430;SDS011;10876;49.038;10.608;2022-11-15T13:37:27;5.05;;;3.83;;
21430;SDS011;10876;49.038;10.608;2022-11-15T13:39:54;5.38;;;3.95;;
21430;SDS011;10876;49.038;10.608;2022-11-15T13:42:28;8.60;;;4.00;;
21430;SDS011;10876;49.038;10.608;2022-11-15T13:44:55;6.70;;;4.00;;
21430;SDS011;10876;49.038;10.608;2022-11-15T13:47:24;5.40;;;4.10;;
21430;SDS011;10876;49.038;10.608;2022-11-15T13:49:53;7.80;;;4.10;;
21430;SDS011;10876;49.038;10.608;2022-11-15T13:52:19;6.30;;;4.10;;
21430;SDS011;10876;49.038;10.608;2022-11-15T13:54:47;9.32;;;4.40;;
21430;SDS011;10876;49.038;10.608;2022-11-15T13:57:18;7.07;;;4.68;;
21430;SDS011;10876;49.038;10.608;2022-11-15T13:59:45;6.90;;;4.65;;
21430;SDS011;10876;49.038;10.608;2022-11-15T14:02:14;6.82;;;3.97;;
21430;SDS011;10876;49.038;10.608;2022-11-15T14:04:45;7.70;;;4.70;;
21430;SDS011;10876;49.038;10.608;2022-11-15T14:07:16;9.90;;;5.00;;
21430;SDS011;10876;49.038;10.608;2022-11-15T14:09:44;8.55;;;4.65;;
21430;SDS011;10876;49.038;10.608;2022-11-15T14:12:27;7.00;;;4.72;;
21430;SDS011;10876;49.038;10.608;2022-11-15T14:14:54;9.00;;;4.60;;
21430;SDS011;10876;49.038;10.608;2022-11-15T14:17:32;7.10;;;4.20;;
21430;SDS011;10876;49.038;10.608;2022-11-15T14:19:59;8.48;;;4.93;;
21430;SDS011;10876;49.038;10.608;2022-11-15T14:22:27;7.22;;;4.68;;
21430;SDS011;10876;49.038;10.608;2022-11-15T14:30:33;8.05;;;4.68;;
21430;SDS011;10876;49.038;10.608;2022-11-15T14:32:59;7.40;;;4.72;;
21430;SDS011;10876;49.038;10.608;2022-11-15T14:35:25;7.35;;;5.05;;
21430;SDS011;10876;49.038;10.608;2022-11-15T14:37:53;8.15;;;4.82;;
21430;SDS011;10876;49.038;10.608;2022-11-15T14:40:20;9.35;;;5.22;;
21430;SDS011;10876;49.038;10.608;2022-11-15T14:42:48;13.77;;;5.50;;
21430;SDS011;10876;49.038;10.608;2022-11-15T14:45:15;8.70;;;5.68;;
21430;SDS011;10876;49.038;10.608;2022-11-15T14:47:42;9.05;;;5.68;;
21430;SDS011;10876;49.038;10.608;2022-11-15T14:50:12;8.68;;;5.72;;
21430;SDS011;10876;49.038;10.608;2022-11-15T14:52:39;9.15;;;5.20;;
21430;SDS011;10876;49.038;10.608;2022-11-15T14:55:11;8.48;;;5.43;;
21430;SDS011;10876;49.038;10.608;2022-11-15T14:57:40;9.80;;;6.25;;
21430;SDS011;10876;49.038;10.608;2022-11-15T15:00:07;14.68;;;8.13;;
21430;SDS011;10876;49.038;10.608;2022-11-15T15:02:35;14.32;;;7.78;;
21430;SDS011;10876;49.038;10.608;2022-11-15T15:05:07;23.85;;;11.15;;
21430;SDS011;10876;49.038;10.608;2022-11-15T15:07:37;16.02;;;9.38;;
21430;SDS011;10876;49.038;10.608;2022-11-15T15:10:04;16.10;;;8.38;;
21430;SDS011;10876;49.038;10.608;2022-11-15T15:12:32;13.13;;;7.65;;